Time;durP1;ratioP1;P1;durP2;ratioP2;P2;SDS_P1;SDS_P2;PMS_P1;PMS_P2;Temp;Humidity;BMP_temperature;BMP_pressure;BME280_temperature;BME280_humidity;BME280_pressure;Samples;Min_cycle;Max_cycle;Signal;HPM_P1;HPM_P2
2021/01/02 00:01:41;;;;;;;11.93;9.20;;;2.10;99.90;;;;;;4965687;28;20046;-71
2021/01/02 00:04:07;;;;;;;;;;;2.10;99.90;;;;;;4965438;28;20050;-66
2021/01/02 00:06:57;;;;;;;11.27;8.68;;;2.10;99.90;;;;;;4964652;28;19925;-67
2021/01/02 00:09:28;;;;;;;13.07;8.45;;;2.10;99.90;;;;;;4964537;28;20049;-66
2021/01/02 00:12:15;;;;;;;11.02;8.77;;;2.10;99.90;;;;;;4964928;28;20039;-66
2021/01/02 00:15:03;;;;;;;10.43;8.43;;;2.00;99.90;;;;;;4965349;28;20088;-67
2021/01/02 00:17:52;;;;;;;13.98;9.23;;;2.00;99.90;;;;;;4963090;28;20055;-66
2021/01/02 00:20:56;;;;;;;10.70;9.18;;;2.00;99.90;;;;;;4963244;28;20148;-67
2021/01/02 00:23:48;;;;;;;10.35;8.88;;;1.90;99.90;;;;;;4961129;28;20692;-66
2021/01/02 00:26:38;;;;;;;10.07;9.07;;;1.90;99.90;;;;;;4965006;28;20037;-67
2021/01/02 00:29:10;;;;;;;13.77;8.90;;;1.90;99.90;;;;;;4961174;28;20050;-67
2021/01/02 00:31:49;;;;;;;12.63;9.15;;;1.90;99.90;;;;;;4965801;28;20069;-71
2021/01/02 00:34:41;;;;;;;11.23;10.02;;;1.90;99.90;;;;;;4946866;28;20176;-66
2021/01/02 00:37:29;;;;;;;13.75;9.73;;;1.90;99.90;;;;;;4940835;28;20035;-66
2021/01/02 00:40:13;;;;;;;11.88;9.05;;;1.90;99.90;;;;;;4966306;28;20046;-67
2021/01/02 00:42:45;;;;;;;11.93;9.38;;;1.90;99.90;;;;;;4964564;28;20051;-65
2021/01/02 00:45:14;;;;;;;11.43;9.30;;;1.90;99.90;;;;;;4966358;28;20046;-68
2021/01/02 00:47:42;;;;;;;9.10;8.20;;;2.00;99.90;;;;;;4965487;28;20058;-66
2021/01/02 00:50:13;;;;;;;13.63;8.98;;;2.00;99.90;;;;;;4976994;28;20629;-65
2021/01/02 00:53:05;;;;;;;15.05;9.80;;;1.90;99.90;;;;;;4963431;28;20050;-65
2021/01/02 00:56:04;;;;;;;9.50;8.02;;;1.90;99.90;;;;;;4959833;28;20047;-67
2021/01/02 00:58:43;;;;;;;8.80;7.68;;;1.90;99.90;;;;;;4961526;28;20183;-67
2021/01/02 01:01:29;;;;;;;9.07;7.97;;;1.90;99.90;;;;;;4969646;28;20051;-68
2021/01/02 01:03:56;;;;;;;10.88;8.23;;;1.90;99.90;;;;;;4965145;28;20054;-69
2021/01/02 01:06:28;;;;;;;11.32;8.65;;;1.80;99.90;;;;;;4965900;28;20109;-68
2021/01/02 01:09:03;;;;;;;12.63;9.18;;;1.80;99.90;;;;;;4964347;28;20058;-66
2021/01/02 01:11:33;;;;;;;11.13;9.07;;;1.80;99.90;;;;;;4963543;28;20046;-65
2021/01/02 01:14:03;;;;;;;13.18;9.48;;;1.90;99.90;;;;;;4965416;28;20206;-66
2021/01/02 01:16:38;;;;;;;12.15;10.45;;;1.80;99.90;;;;;;4965715;28;20085;-66
2021/01/02 01:19:07;;;;;;;13.65;10.43;;;1.80;99.90;;;;;;4963912;28;20051;-67
2021/01/02 01:21:43;;;;;;;11.85;9.90;;;1.90;99.90;;;;;;4965120;28;20054;-67
2021/01/02 01:24:25;;;;;;;13.48;9.07;;;1.80;99.90;;;;;;4964946;28;20142;-66
2021/01/02 01:27:32;;;;;;;10.75;9.05;;;1.90;99.90;;;;;;4963721;28;20086;-69
2021/01/02 01:30:00;;;;;;;12.60;10.13;;;1.90;99.90;;;;;;4963757;28;20458;-67
2021/01/02 01:32:29;;;;;;;12.65;10.40;;;1.90;99.90;;;;;;4965125;28;20133;-67
2021/01/02 01:35:00;;;;;;;12.68;9.70;;;1.90;99.90;;;;;;4965073;28;20051;-66
2021/01/02 01:37:29;;;;;;;14.07;10.90;;;1.90;99.90;;;;;;4962609;28;20426;-68
2021/01/02 01:39:56;;;;;;;14.35;11.88;;;1.90;99.90;;;;;;4965083;28;20054;-65
2021/01/02 01:42:43;;;;;;;12.00;9.90;;;1.90;99.90;;;;;;4964908;28;20473;-68
2021/01/02 01:45:28;;;;;;;12.77;9.80;;;1.90;99.90;;;;;;4960501;28;20050;-66
2021/01/02 01:48:12;;;;;;;14.20;9.55;;;1.90;99.90;;;;;;4965364;28;20059;-68
2021/01/02 01:51:16;;;;;;;10.52;8.07;;;1.90;99.90;;;;;;4963723;28;20053;-67
2021/01/02 01:53:52;;;;;;;13.88;9.15;;;1.90;99.90;;;;;;4962855;28;20051;-68
2021/01/02 01:56:29;;;;;;;11.32;8.93;;;1.90;99.90;;;;;;4964544;28;20101;-69
2021/01/02 01:59:04;;;;;;;12.32;9.77;;;1.90;99.90;;;;;;4964854;28;20082;-66
2021/01/02 02:01:37;;;;;;;11.05;9.27;;;2.00;99.90;;;;;;4963129;28;20477;-66
2021/01/02 02:04:09;;;;;;;13.85;11.68;;;2.00;99.90;;;;;;4961329;28;20161;-67
2021/01/02 02:06:43;;;;;;;13.98;9.80;;;1.90;99.90;;;;;;4963874;28;20057;-68
2021/01/02 02:09:20;;;;;;;12.63;9.95;;;2.00;99.90;;;;;;4962470;28;20117;-66
2021/01/02 02:12:04;;;;;;;14.45;9.65;;;2.00;99.90;;;;;;4963021;28;20138;-67
2021/01/02 02:15:05;;;;;;;13.23;10.55;;;1.90;99.90;;;;;;4963864;28;20101;-66
2021/01/02 02:17:44;;;;;;;15.13;10.63;;;1.90;99.90;;;;;;4964411;28;20463;-69
2021/01/02 02:20:12;;;;;;;16.70;10.80;;;2.00;99.90;;;;;;4964669;28;20047;-66
2021/01/02 02:22:40;;;;;;;15.05;10.70;;;2.00;99.90;;;;;;4963643;28;20491;-69
2021/01/02 02:25:16;;;;;;;12.55;9.43;;;1.90;99.90;;;;;;4963404;28;20097;-68
2021/01/02 02:27:46;;;;;;;15.45;11.52;;;1.90;99.90;;;;;;4961133;28;20557;-66
2021/01/02 02:30:25;;;;;;;14.55;9.68;;;2.00;99.90;;;;;;4960709;28;20149;-67
2021/01/02 02:32:51;;;;;;;10.95;9.27;;;1.90;99.90;;;;;;4963929;28;20061;-68
2021/01/02 02:35:20;;;;;;;11.32;8.70;;;2.00;99.90;;;;;;4962565;28;20157;-65
2021/01/02 02:37:52;;;;;;;13.55;8.85;;;2.00;99.90;;;;;;4962915;28;20058;-67
2021/01/02 02:40:21;;;;;;;13.52;8.90;;;1.90;99.90;;;;;;4964283;28;20047;-69
2021/01/02 02:42:58;;;;;;;10.73;9.00;;;1.90;99.90;;;;;;4958503;28;20057;-68
2021/01/02 02:45:29;;;;;;;10.13;8.90;;;1.90;99.90;;;;;;4962561;28;20390;-65
2021/01/02 02:47:59;;;;;;;19.52;10.88;;;1.90;99.90;;;;;;4958829;28;20129;-68
2021/01/02 02:50:27;;;;;;;11.40;9.07;;;1.90;99.90;;;;;;4963153;28;20113;-66
2021/01/02 02:53:03;;;;;;;11.52;9.63;;;1.90;99.90;;;;;;4962506;28;20166;-68
2021/01/02 02:55:30;;;;;;;11.60;9.00;;;2.00;99.90;;;;;;4962736;28;20493;-65
2021/01/02 02:57:59;;;;;;;12.48;9.40;;;1.90;99.90;;;;;;4963232;28;20101;-68
2021/01/02 03:00:25;;;;;;;13.15;9.75;;;1.90;99.90;;;;;;4963935;28;20042;-66
2021/01/02 03:02:52;;;;;;;11.43;9.45;;;1.90;99.90;;;;;;4967139;28;20070;-67
2021/01/02 03:05:18;;;;;;;12.52;8.57;;;1.90;99.90;;;;;;4966148;28;20125;-67
2021/01/02 03:07:47;;;;;;;10.07;7.85;;;1.90;99.90;;;;;;4966839;28;20161;-66
2021/01/02 03:10:16;;;;;;;8.52;7.35;;;1.90;99.90;;;;;;4967169;28;20058;-68
2021/01/02 03:12:48;;;;;;;10.60;7.93;;;2.00;99.90;;;;;;4965922;28;20105;-66
2021/01/02 03:15:40;;;;;;;;;;;1.90;99.90;;;;;;4966511;28;20059;-66
2021/01/02 03:18:08;;;;;;;9.38;6.68;;;1.90;99.90;;;;;;4968117;28;19926;-68
2021/01/02 03:20:34;;;;;;;9.98;7.55;;;1.90;99.90;;;;;;4966618;28;20116;-68
2021/01/02 03:23:01;;;;;;;10.13;7.13;;;1.90;99.90;;;;;;4966766;28;20061;-65
2021/01/02 03:25:28;;;;;;;8.43;6.82;;;1.90;99.90;;;;;;4966247;28;20047;-68
2021/01/02 03:27:56;;;;;;;7.68;5.95;;;1.80;99.90;;;;;;4967215;28;20533;-71
2021/01/02 03:30:24;;;;;;;10.35;6.80;;;1.80;99.90;;;;;;4967862;28;20134;-69
2021/01/02 03:32:50;;;;;;;8.48;6.32;;;1.80;99.90;;;;;;4967422;28;20047;-67
2021/01/02 03:35:17;;;;;;;8.02;6.07;;;1.80;99.90;;;;;;4965229;28;20078;-71
2021/01/02 03:37:45;;;;;;;9.70;6.88;;;1.80;99.90;;;;;;4966100;28;20494;-67
2021/01/02 03:40:14;;;;;;;7.55;5.90;;;1.80;99.90;;;;;;4967516;28;20047;-67
2021/01/02 03:42:42;;;;;;;7.90;6.18;;;1.70;99.90;;;;;;4962228;28;20070;-70
2021/01/02 03:45:11;;;;;;;8.25;6.43;;;1.80;99.90;;;;;;4967244;28;20039;-67
2021/01/02 03:47:42;;;;;;;9.00;7.47;;;1.80;99.90;;;;;;4967590;28;20066;-66
2021/01/02 03:50:09;;;;;;;8.55;6.32;;;1.80;99.90;;;;;;4966905;28;20051;-66
2021/01/02 03:52:37;;;;;;;8.75;7.35;;;1.80;99.90;;;;;;4966503;28;20130;-68
2021/01/02 03:55:05;;;;;;;9.52;6.97;;;1.80;99.90;;;;;;4965697;28;20801;-66
2021/01/02 03:57:31;;;;;;;9.02;7.28;;;1.80;99.90;;;;;;4966682;28;20153;-70
2021/01/02 03:59:58;;;;;;;9.98;7.80;;;1.80;99.90;;;;;;4971154;28;20771;-66
2021/01/02 04:02:27;;;;;;;9.85;7.18;;;1.80;99.90;;;;;;4966588;28;20503;-67
2021/01/02 04:04:54;;;;;;;9.10;6.85;;;1.80;99.90;;;;;;4966345;28;20049;-67
2021/01/02 04:07:20;;;;;;;9.65;8.15;;;1.80;99.90;;;;;;4964549;28;20047;-66
2021/01/02 04:09:47;;;;;;;11.20;6.45;;;1.80;99.90;;;;;;4966651;28;20054;-66
2021/01/02 04:12:14;;;;;;;8.95;6.95;;;1.80;99.90;;;;;;4961411;28;20444;-68
2021/01/02 04:14:40;;;;;;;10.57;6.97;;;1.80;99.90;;;;;;4966979;28;20038;-67
2021/01/02 04:17:06;;;;;;;9.38;6.88;;;1.80;99.90;;;;;;4967060;28;20074;-68
2021/01/02 04:19:33;;;;;;;9.90;7.18;;;1.80;99.90;;;;;;4966241;28;20406;-66
2021/01/02 04:21:59;;;;;;;7.93;6.35;;;1.80;99.90;;;;;;4966070;28;20046;-68
2021/01/02 04:24:27;;;;;;;7.97;6.28;;;1.80;99.90;;;;;;4968340;28;20162;-68
2021/01/02 04:27:01;;;;;;;8.18;6.20;;;1.80;99.90;;;;;;4966803;28;20082;-67
2021/01/02 04:29:28;;;;;;;9.40;6.75;;;1.80;99.90;;;;;;4965189;28;20098;-65
2021/01/02 04:31:56;;;;;;;8.77;5.88;;;1.80;99.90;;;;;;4966582;28;20161;-67
2021/01/02 04:34:23;;;;;;;9.38;6.40;;;1.90;99.90;;;;;;4963979;28;20047;-65
2021/01/02 04:36:50;;;;;;;8.20;6.35;;;1.90;99.90;;;;;;4966688;28;20364;-72
2021/01/02 04:39:17;;;;;;;9.23;6.63;;;1.80;99.90;;;;;;4964046;28;20050;-67
2021/01/02 04:41:44;;;;;;;8.25;5.97;;;1.90;99.90;;;;;;4965937;28;20133;-68
2021/01/02 04:44:12;;;;;;;9.50;7.20;;;1.90;99.90;;;;;;4964518;28;20054;-66
2021/01/02 04:46:38;;;;;;;10.45;6.78;;;1.90;99.90;;;;;;4966102;28;20050;-66
2021/01/02 04:49:05;;;;;;;9.73;6.25;;;1.90;99.90;;;;;;4963857;28;20078;-66
2021/01/02 04:51:31;;;;;;;8.88;6.07;;;1.80;99.90;;;;;;4966434;28;20047;-69
2021/01/02 04:54:02;;;;;;;8.43;6.63;;;1.80;99.90;;;;;;4965420;28;20054;-67
2021/01/02 04:56:38;;;;;;;9.15;6.20;;;1.90;99.90;;;;;;4965340;28;20054;-68
2021/01/02 04:59:12;;;;;;;7.88;5.97;;;1.80;99.90;;;;;;4964143;28;20043;-67
2021/01/02 05:01:40;;;;;;;8.95;6.80;;;1.80;99.90;;;;;;4964196;28;20034;-66
2021/01/02 05:04:08;;;;;;;9.60;6.30;;;1.80;99.90;;;;;;4964715;28;20034;-69
2021/01/02 05:06:35;;;;;;;7.25;6.45;;;1.80;99.90;;;;;;4964848;28;20552;-68
2021/01/02 05:09:05;;;;;;;8.98;6.95;;;1.80;99.90;;;;;;4964131;28;20055;-67
2021/01/02 05:11:38;;;;;;;8.70;6.53;;;1.70;99.90;;;;;;4965208;28;20435;-68
2021/01/02 05:14:06;;;;;;;6.75;5.72;;;1.70;99.90;;;;;;4962811;28;20410;-69
2021/01/02 05:16:41;;;;;;;8.43;5.85;;;1.70;99.90;;;;;;4967069;28;20043;-67
2021/01/02 05:19:12;;;;;;;6.45;5.05;;;1.70;99.90;;;;;;4964092;28;20050;-67
2021/01/02 05:21:46;;;;;;;7.40;5.82;;;1.70;99.90;;;;;;4966595;28;20047;-69
2021/01/02 05:24:19;;;;;;;6.50;5.80;;;1.70;99.90;;;;;;4958118;28;20051;-66
2021/01/02 05:26:55;;;;;;;7.60;5.40;;;1.70;99.90;;;;;;4967084;28;20050;-67
2021/01/02 05:29:24;;;;;;;7.57;5.28;;;1.80;99.90;;;;;;4964864;28;22946;-68
2021/01/02 05:32:02;;;;;;;6.50;5.45;;;1.80;99.90;;;;;;4949190;28;20054;-66
2021/01/02 05:34:31;;;;;;;5.65;4.40;;;1.80;99.90;;;;;;4965226;28;20158;-69
2021/01/02 05:37:09;;;;;;;4.75;3.40;;;1.80;99.90;;;;;;4965228;28;20137;-67
2021/01/02 05:39:54;;;;;;;5.15;3.58;;;1.80;99.90;;;;;;4962645;28;20414;-72
2021/01/02 05:42:21;;;;;;;3.85;2.60;;;1.80;99.90;;;;;;4967216;28;20043;-65
2021/01/02 05:44:47;;;;;;;5.57;3.38;;;1.70;99.90;;;;;;4965886;28;20051;-66
2021/01/02 05:47:20;;;;;;;3.60;2.95;;;1.70;99.90;;;;;;4965319;28;20082;-69
2021/01/02 05:49:49;;;;;;;3.17;2.38;;;1.70;99.90;;;;;;4958713;28;20051;-67
2021/01/02 05:52:17;;;;;;;3.45;2.55;;;1.60;99.90;;;;;;4966327;28;20046;-66
2021/01/02 05:54:46;;;;;;;4.97;2.95;;;1.70;99.90;;;;;;4968375;28;20126;-65
2021/01/02 05:57:13;;;;;;;3.70;3.28;;;1.60;99.90;;;;;;4963252;28;20109;-70
2021/01/02 05:59:41;;;;;;;4.38;2.58;;;1.60;99.90;;;;;;4967377;28;20044;-65
2021/01/02 06:02:31;;;;;;;3.85;2.45;;;1.60;99.90;;;;;;4964299;28;20050;-66
2021/01/02 06:05:05;;;;;;;2.88;2.03;;;1.60;99.90;;;;;;4964350;28;20065;-67
2021/01/02 06:07:34;;;;;;;4.35;1.85;;;1.60;99.90;;;;;;4960246;28;20808;-70
2021/01/02 06:10:02;;;;;;;4.07;2.50;;;1.60;99.90;;;;;;4963995;28;20047;-65
2021/01/02 06:12:33;;;;;;;2.78;2.10;;;1.60;99.90;;;;;;4964886;28;20058;-66
2021/01/02 06:15:11;;;;;;;3.60;2.60;;;1.60;99.90;;;;;;4964634;28;20099;-69
2021/01/02 06:18:03;;;;;;;2.80;1.88;;;1.60;99.90;;;;;;4960321;28;20133;-69
2021/01/02 06:20:30;;;;;;;4.20;2.85;;;1.60;99.90;;;;;;4964287;28;20043;-68
2021/01/02 06:22:56;;;;;;;3.53;2.42;;;1.60;99.90;;;;;;4963556;28;20770;-67
2021/01/02 06:25:23;;;;;;;4.80;2.65;;;1.60;99.90;;;;;;4962598;28;20062;-67
2021/01/02 06:27:49;;;;;;;3.47;2.25;;;1.60;99.90;;;;;;4964288;28;20047;-65
2021/01/02 06:30:18;;;;;;;4.35;2.40;;;1.60;99.90;;;;;;4964006;28;20031;-66
2021/01/02 06:32:47;;;;;;;4.20;2.22;;;1.60;99.90;;;;;;4963484;28;20042;-66
2021/01/02 06:35:20;;;;;;;2.55;2.35;;;1.60;99.90;;;;;;4962850;28;20202;-67
2021/01/02 06:37:49;;;;;;;3.08;2.05;;;1.60;99.90;;;;;;4962117;28;20047;-66
2021/01/02 06:40:26;;;;;;;2.88;1.70;;;1.60;99.90;;;;;;4964401;28;20070;-67
2021/01/02 06:42:54;;;;;;;3.95;2.65;;;1.60;99.90;;;;;;4963853;28;20043;-66
2021/01/02 06:45:36;;;;;;;3.00;1.88;;;1.60;99.90;;;;;;4962437;28;20046;-70
2021/01/02 06:48:23;;;;;;;3.83;3.20;;;1.60;99.90;;;;;;4963651;28;20051;-69
2021/01/02 06:50:51;;;;;;;3.60;2.60;;;1.60;99.90;;;;;;4969784;28;20047;-68
2021/01/02 06:53:37;;;;;;;3.92;2.58;;;1.50;99.90;;;;;;4961379;28;20626;-66
2021/01/02 06:56:09;;;;;;;4.63;3.47;;;1.60;99.90;;;;;;4958747;28;20117;-68
2021/01/02 06:58:37;;;;;;;3.70;2.83;;;1.50;99.90;;;;;;4968196;28;20047;-67
2021/01/02 07:01:07;;;;;;;7.30;3.08;;;1.50;99.90;;;;;;4962806;28;20047;-67
2021/01/02 07:03:40;;;;;;;4.22;2.70;;;1.50;99.90;;;;;;4963273;28;20059;-70
2021/01/02 07:06:18;;;;;;;4.55;2.95;;;1.40;99.90;;;;;;4964022;28;20054;-65
2021/01/02 07:08:47;;;;;;;4.38;3.15;;;1.40;99.90;;;;;;4962194;28;20062;-71
2021/01/02 07:11:46;;;;;;;3.80;2.47;;;1.40;99.90;;;;;;4962063;28;20043;-66
2021/01/02 07:14:13;;;;;;;3.75;2.97;;;1.40;99.90;;;;;;4961341;28;20050;-66
2021/01/02 07:16:50;;;;;;;4.38;3.47;;;1.40;99.90;;;;;;4963722;28;20144;-68
2021/01/02 07:19:26;;;;;;;4.55;2.60;;;1.40;99.90;;;;;;4960944;28;20050;-68
2021/01/02 07:22:17;;;;;;;5.07;2.80;;;1.50;99.90;;;;;;4963996;28;20051;-67
2021/01/02 07:25:06;;;;;;;3.70;2.75;;;1.50;99.90;;;;;;4963582;28;20066;-69
2021/01/02 07:27:37;;;;;;;5.57;3.40;;;1.50;99.90;;;;;;4962618;28;20544;-67
2021/01/02 07:30:05;;;;;;;4.15;3.22;;;1.50;99.90;;;;;;4963246;28;20671;-67
2021/01/02 07:32:42;;;;;;;4.43;3.30;;;1.60;99.90;;;;;;4963443;28;20051;-68
2021/01/02 07:35:14;;;;;;;6.43;3.60;;;1.60;99.90;;;;;;4962080;28;20050;-68
2021/01/02 07:37:42;;;;;;;2.80;2.60;;;1.60;99.90;;;;;;4962211;28;20114;-65
2021/01/02 07:40:12;;;;;;;4.38;2.90;;;1.60;99.90;;;;;;4963465;28;20132;-67
2021/01/02 07:42:41;;;;;;;5.55;3.63;;;1.60;99.90;;;;;;4963462;28;20209;-65
2021/01/02 07:45:13;;;;;;;5.60;4.03;;;1.70;99.90;;;;;;4962319;28;20543;-69
2021/01/02 07:47:47;;;;;;;6.45;3.50;;;1.70;99.90;;;;;;4963849;28;20076;-66
2021/01/02 07:50:15;;;;;;;5.10;3.63;;;1.70;99.90;;;;;;4967249;28;20867;-68
2021/01/02 07:52:52;;;;;;;4.05;3.17;;;1.70;99.90;;;;;;4965086;28;20050;-66
2021/01/02 07:55:42;;;;;;;2.95;2.55;;;1.70;99.90;;;;;;4965256;28;20038;-70
2021/01/02 07:58:08;;;;;;;4.18;3.30;;;1.70;99.90;;;;;;4965310;28;20039;-69
2021/01/02 08:00:35;;;;;;;4.22;3.10;;;1.70;99.90;;;;;;4966955;28;20271;-69
2021/01/02 08:03:04;;;;;;;5.57;3.25;;;1.70;99.90;;;;;;4968000;28;20049;-68
2021/01/02 08:05:30;;;;;;;3.55;3.08;;;1.70;99.90;;;;;;4965172;28;20101;-71
2021/01/02 08:07:59;;;;;;;5.30;3.22;;;1.70;99.90;;;;;;4972003;28;20719;-67
2021/01/02 08:10:27;;;;;;;4.75;3.15;;;1.80;99.90;;;;;;4966396;28;20682;-68
2021/01/02 08:13:00;;;;;;;4.97;3.28;;;1.80;99.90;;;;;;4966133;28;20050;-68
2021/01/02 08:15:30;;;;;;;4.88;2.80;;;1.80;99.90;;;;;;4964338;28;20478;-66
2021/01/02 08:18:07;;;;;;;6.30;3.40;;;1.80;99.90;;;;;;4965693;28;20129;-68
2021/01/02 08:20:35;;;;;;;3.42;2.45;;;1.80;99.90;;;;;;4965410;28;20050;-69
2021/01/02 08:23:13;;;;;;;4.22;2.45;;;1.80;99.90;;;;;;4965781;28;20169;-67
2021/01/02 08:25:42;;;;;;;4.25;2.55;;;1.80;99.90;;;;;;4963879;28;20046;-66
2021/01/02 08:28:09;;;;;;;2.53;2.15;;;1.80;99.90;;;;;;4966272;28;20530;-69
2021/01/02 08:30:36;;;;;;;3.53;2.10;;;1.80;99.90;;;;;;4965891;28;20142;-69
2021/01/02 08:33:07;;;;;;;3.38;2.38;;;1.80;99.90;;;;;;4964777;28;20050;-68
2021/01/02 08:35:42;;;;;;;3.75;2.53;;;1.80;99.90;;;;;;4965940;28;20329;-67
2021/01/02 08:38:11;;;;;;;3.72;2.42;;;1.90;99.90;;;;;;4963399;28;20039;-67
2021/01/02 08:40:39;;;;;;;3.17;1.67;;;1.90;99.90;;;;;;4963572;28;20129;-67
2021/01/02 08:43:06;;;;;;;4.30;2.47;;;1.90;99.90;;;;;;4964620;28;20481;-66
2021/01/02 08:45:36;;;;;;;4.13;2.13;;;1.90;99.90;;;;;;4968172;28;20566;-67
2021/01/02 08:48:07;;;;;;;2.33;1.45;;;1.90;99.90;;;;;;4963340;28;20043;-68
2021/01/02 08:50:38;;;;;;;3.42;2.05;;;1.90;99.90;;;;;;4966088;28;20058;-70
2021/01/02 08:53:04;;;;;;;2.40;1.50;;;1.90;99.90;;;;;;4963333;28;20054;-67
2021/01/02 08:55:31;;;;;;;2.65;2.22;;;1.90;99.90;;;;;;4963933;28;20545;-69
2021/01/02 08:57:57;;;;;;;2.40;2.03;;;1.90;99.90;;;;;;4963950;28;20042;-68
2021/01/02 09:00:30;;;;;;;3.63;1.77;;;1.90;99.90;;;;;;4965483;28;20393;-66
2021/01/02 09:03:08;;;;;;;;;;;1.90;99.90;;;;;;4966812;28;20443;-66
2021/01/02 09:05:39;;;;;;;4.18;2.15;;;2.00;99.90;;;;;;4962842;28;20302;-65
2021/01/02 09:08:08;;;;;;;5.38;2.05;;;2.00;99.90;;;;;;4965361;28;20043;-70
2021/01/02 09:10:37;;;;;;;2.75;1.70;;;1.90;99.90;;;;;;4963349;28;20070;-69
2021/01/02 09:13:21;;;;;;;4.80;2.00;;;1.90;99.90;;;;;;4963743;28;20043;-66
2021/01/02 09:16:00;;;;;;;3.95;1.83;;;1.90;99.90;;;;;;4964275;28;20054;-69
2021/01/02 09:18:29;;;;;;;3.60;1.98;;;1.90;99.90;;;;;;4964636;28;20058;-67
2021/01/02 09:20:56;;;;;;;3.53;2.33;;;2.00;99.90;;;;;;4966324;28;20055;-67
2021/01/02 09:23:33;;;;;;;3.67;2.60;;;1.90;99.90;;;;;;4963217;28;20057;-69
2021/01/02 09:26:16;;;;;;;3.30;2.30;;;2.00;99.90;;;;;;4959813;28;20049;-68
2021/01/02 09:28:43;;;;;;;4.85;3.03;;;2.00;99.90;;;;;;4965133;28;20046;-67
2021/01/02 09:31:10;;;;;;;3.90;3.10;;;2.00;99.90;;;;;;4964386;28;20431;-66
2021/01/02 09:33:36;;;;;;;5.70;3.33;;;1.90;99.90;;;;;;4967872;28;20363;-66
2021/01/02 09:36:04;;;;;;;4.03;2.58;;;2.00;99.90;;;;;;4963838;28;20089;-68
2021/01/02 09:38:30;;;;;;;4.25;2.50;;;2.00;99.90;;;;;;4965102;28;20049;-66
2021/01/02 09:40:57;;;;;;;3.40;2.35;;;2.00;99.90;;;;;;4959952;28;20042;-68
2021/01/02 09:43:24;;;;;;;4.18;2.78;;;2.00;99.90;;;;;;4963549;28;20102;-66
2021/01/02 09:45:51;;;;;;;5.20;3.08;;;2.00;99.90;;;;;;4964453;28;20581;-67
2021/01/02 09:48:17;;;;;;;3.70;2.42;;;2.00;99.90;;;;;;4965025;28;20497;-69
2021/01/02 09:50:45;;;;;;;5.03;3.00;;;2.00;99.90;;;;;;4964005;28;20455;-70
2021/01/02 09:53:14;;;;;;;3.95;2.83;;;2.00;99.90;;;;;;4962844;28;20047;-66
2021/01/02 09:55:41;;;;;;;3.65;2.38;;;2.00;99.90;;;;;;4965318;28;20046;-66
2021/01/02 09:58:08;;;;;;;4.95;2.60;;;2.00;99.90;;;;;;4964150;28;20121;-71
2021/01/02 10:00:35;;;;;;;3.15;2.40;;;2.00;99.90;;;;;;4965160;28;20071;-67
2021/01/02 10:03:01;;;;;;;4.75;2.15;;;2.00;99.90;;;;;;4964216;28;20184;-66
2021/01/02 10:05:42;;;;;;;4.78;3.17;;;2.00;99.90;;;;;;4963541;28;20051;-70
2021/01/02 10:08:08;;;;;;;5.82;2.70;;;2.00;99.90;;;;;;4962834;28;20152;-66
2021/01/02 10:10:35;;;;;;;4.70;2.85;;;2.00;99.90;;;;;;4962656;28;20066;-70
2021/01/02 10:13:02;;;;;;;5.82;3.47;;;2.00;99.90;;;;;;4959609;28;20042;-68
2021/01/02 10:15:29;;;;;;;4.85;2.83;;;2.00;99.90;;;;;;4960898;28;20214;-66
2021/01/02 10:17:57;;;;;;;4.30;2.70;;;2.00;99.90;;;;;;4964509;28;20149;-72
2021/01/02 10:20:24;;;;;;;5.35;2.88;;;2.00;99.90;;;;;;4964170;28;20046;-68
2021/01/02 10:22:50;;;;;;;5.07;3.03;;;2.00;99.90;;;;;;4963998;28;20082;-66
2021/01/02 10:25:17;;;;;;;3.95;2.65;;;2.10;99.90;;;;;;4960322;28;20103;-69
2021/01/02 10:27:43;;;;;;;2.88;2.22;;;2.10;99.90;;;;;;4964336;28;20045;-67
2021/01/02 10:30:13;;;;;;;5.82;3.42;;;2.10;99.90;;;;;;4964858;28;20050;-66
2021/01/02 10:32:39;;;;;;;3.33;2.63;;;2.20;99.90;;;;;;4965973;28;20054;-72
2021/01/02 10:35:08;;;;;;;5.82;2.95;;;2.20;99.90;;;;;;4963456;28;20109;-68
2021/01/02 10:37:35;;;;;;;6.53;3.03;;;2.20;99.90;;;;;;4963162;28;20055;-67
2021/01/02 10:40:04;;;;;;;4.50;3.47;;;2.20;99.90;;;;;;4964581;28;20616;-67
2021/01/02 10:42:32;;;;;;;4.20;3.17;;;2.30;99.90;;;;;;4964231;28;20046;-67
2021/01/02 10:45:00;;;;;;;4.68;3.17;;;2.30;99.90;;;;;;4963441;28;20532;-66
2021/01/02 10:47:28;;;;;;;4.60;3.83;;;2.30;99.90;;;;;;4962789;28;20051;-69
2021/01/02 10:49:56;;;;;;;4.95;3.08;;;2.30;99.90;;;;;;4963850;28;20714;-67
2021/01/02 10:52:25;;;;;;;6.43;4.57;;;2.30;99.90;;;;;;4964931;28;20078;-68
2021/01/02 10:54:52;;;;;;;8.35;3.72;;;2.40;99.90;;;;;;4963238;28;20396;-67
2021/01/02 10:57:20;;;;;;;5.22;3.95;;;2.40;99.90;;;;;;4961382;28;20074;-68
2021/01/02 10:59:48;;;;;;;6.85;3.78;;;2.40;99.90;;;;;;4958827;28;20038;-67
2021/01/02 11:02:15;;;;;;;5.65;3.38;;;2.50;99.90;;;;;;4962874;28;20039;-67
2021/01/02 11:04:42;;;;;;;5.30;3.58;;;2.50;99.90;;;;;;4961001;28;20545;-70
2021/01/02 11:07:10;;;;;;;6.38;4.15;;;2.50;99.90;;;;;;4959137;28;20451;-69
2021/01/02 11:09:37;;;;;;;7.22;3.92;;;2.50;99.90;;;;;;4961056;28;20046;-67
2021/01/02 11:12:04;;;;;;;3.92;2.58;;;2.60;99.90;;;;;;4961623;28;20072;-68
2021/01/02 11:14:31;;;;;;;6.85;3.45;;;2.60;99.90;;;;;;4959675;28;20541;-67
2021/01/02 11:16:57;;;;;;;5.10;3.40;;;2.60;99.90;;;;;;4962814;28;20074;-69
2021/01/02 11:19:27;;;;;;;5.18;2.92;;;2.60;99.90;;;;;;4963049;28;20050;-68
2021/01/02 11:21:55;;;;;;;4.37;3.17;;;2.70;99.90;;;;;;4963209;28;20046;-68
2021/01/02 11:24:25;;;;;;;5.38;3.22;;;2.70;99.90;;;;;;4967564;28;20292;-69
2021/01/02 11:26:54;;;;;;;7.68;3.72;;;2.70;99.90;;;;;;4966073;28;20057;-66
2021/01/02 11:29:23;;;;;;;5.68;3.53;;;2.70;99.90;;;;;;4963757;28;20043;-68
2021/01/02 11:31:49;;;;;;;5.07;3.58;;;2.70;99.90;;;;;;4966531;28;21065;-73
2021/01/02 11:34:23;;;;;;;8.82;4.80;;;2.70;99.90;;;;;;4965711;28;20042;-66
2021/01/02 11:36:51;;;;;;;8.05;3.47;;;2.80;99.90;;;;;;4965596;28;21333;-69
2021/01/02 11:39:19;;;;;;;8.48;3.72;;;2.80;99.90;;;;;;4963649;28;20402;-69
2021/01/02 11:41:46;;;;;;;5.63;3.45;;;2.80;99.90;;;;;;4965239;28;20668;-69
2021/01/02 11:44:15;;;;;;;6.07;2.95;;;2.80;99.90;;;;;;4965710;28;20477;-69
2021/01/02 11:46:43;;;;;;;4.70;3.45;;;2.90;99.90;;;;;;4967918;28;20067;-70
2021/01/02 11:49:13;;;;;;;5.55;3.17;;;2.90;99.90;;;;;;4966299;28;20047;-67
2021/01/02 11:51:39;;;;;;;4.70;3.10;;;2.90;99.90;;;;;;4966337;28;20158;-69
2021/01/02 11:54:06;;;;;;;4.00;2.47;;;2.90;99.90;;;;;;4966705;28;20054;-69
2021/01/02 11:56:33;;;;;;;4.93;3.00;;;2.90;99.90;;;;;;4964565;28;20457;-71
2021/01/02 11:59:00;;;;;;;5.00;2.83;;;2.90;99.90;;;;;;4965640;28;20046;-69
2021/01/02 12:01:55;;;;;;;6.43;3.97;;;2.90;99.90;;;;;;4964362;28;20089;-70
2021/01/02 12:04:24;;;;;;;4.68;3.58;;;2.80;99.90;;;;;;4965980;28;20058;-67
2021/01/02 12:06:51;;;;;;;5.13;3.55;;;2.90;99.90;;;;;;4965205;28;20125;-70
2021/01/02 12:09:20;;;;;;;8.07;4.30;;;2.90;99.90;;;;;;4963569;28;20074;-70
2021/01/02 12:11:48;;;;;;;5.05;3.38;;;2.90;99.90;;;;;;4964776;28;20074;-70
2021/01/02 12:14:18;;;;;;;6.32;4.43;;;2.90;99.90;;;;;;4966779;28;20082;-69
2021/01/02 12:16:48;;;;;;;8.75;3.75;;;3.00;99.90;;;;;;4962926;28;20046;-75
2021/01/02 12:19:24;;;;;;;5.25;3.85;;;3.00;99.90;;;;;;4966001;28;20828;-72
2021/01/02 12:22:08;;;;;;;7.00;4.20;;;3.10;99.90;;;;;;4966320;28;20129;-70
2021/01/02 12:24:35;;;;;;;8.45;3.97;;;3.10;99.90;;;;;;4966696;28;20065;-72
2021/01/02 12:27:08;;;;;;;5.32;3.22;;;3.20;99.90;;;;;;4965498;28;20055;-69
2021/01/02 12:29:35;;;;;;;5.03;3.30;;;3.20;99.90;;;;;;4965953;28;20510;-70
2021/01/02 12:32:06;;;;;;;5.80;4.25;;;3.20;99.90;;;;;;4966586;28;20054;-69
2021/01/02 12:34:38;;;;;;;5.88;4.22;;;3.20;99.90;;;;;;4963223;28;20141;-68
2021/01/02 12:37:11;;;;;;;7.28;3.92;;;3.30;99.90;;;;;;4964241;28;20046;-66
2021/01/02 12:39:39;;;;;;;5.15;3.30;;;3.30;99.90;;;;;;4966198;28;20146;-68
2021/01/02 12:42:08;;;;;;;5.40;3.92;;;3.30;99.90;;;;;;4965602;28;20137;-67
2021/01/02 12:44:34;;;;;;;6.03;3.85;;;3.30;99.90;;;;;;4965405;28;20145;-73
2021/01/02 12:47:06;;;;;;;5.50;3.90;;;3.30;99.90;;;;;;4966390;28;20109;-67
2021/01/02 12:49:33;;;;;;;5.63;3.90;;;3.30;99.90;;;;;;4964163;28;20050;-67
2021/01/02 12:52:02;;;;;;;4.60;3.05;;;3.30;99.90;;;;;;4965936;28;20165;-71
2021/01/02 12:54:29;;;;;;;10.73;4.73;;;3.30;99.90;;;;;;4966207;28;20117;-74
2021/01/02 12:56:56;;;;;;;6.88;3.78;;;3.40;99.90;;;;;;4964762;28;20054;-68
2021/01/02 12:59:26;;;;;;;5.60;4.63;;;3.40;99.90;;;;;;4964911;28;20051;-69
2021/01/02 13:01:53;;;;;;;5.03;3.13;;;3.40;99.90;;;;;;4966021;28;20050;-70
2021/01/02 13:04:20;;;;;;;5.07;4.18;;;3.40;99.90;;;;;;4965493;28;20070;-67
2021/01/02 13:06:54;;;;;;;8.30;4.30;;;3.40;99.90;;;;;;4965722;28;20069;-67
2021/01/02 13:09:21;;;;;;;5.50;3.92;;;3.40;99.90;;;;;;4963858;28;20142;-67
2021/01/02 13:11:51;;;;;;;8.02;4.32;;;3.40;99.90;;;;;;4965375;28;20066;-68
2021/01/02 13:14:19;;;;;;;;;;;3.30;99.90;;;;;;4966597;28;20498;-68
2021/01/02 13:16:51;;;;;;;7.30;4.70;;;3.30;99.90;;;;;;4965274;28;20017;-72
2021/01/02 13:19:18;;;;;;;5.93;4.22;;;3.30;99.90;;;;;;4963910;28;20098;-69